sensor_id;sensor_type;location;lat;lon;timestamp;P1;durP1;ratioP1;P2;durP2;ratioP2
52486;SDS011;38398;45.646;10.390;2024-03-17T00:01:03;38.15;;;25.80;;
52486;SDS011;38398;45.646;10.390;2024-03-17T00:03:32;45.28;;;30.45;;
52486;SDS011;38398;45.646;10.390;2024-03-17T00:05:58;38.42;;;25.75;;
52486;SDS011;38398;45.646;10.390;2024-03-17T00:08:24;37.80;;;25.33;;
52486;SDS011;38398;45.646;10.390;2024-03-17T00:10:53;42.35;;;25.90;;
52486;SDS011;38398;45.646;10.390;2024-03-17T00:13:22;41.25;;;25.80;;
52486;SDS011;38398;45.646;10.390;2024-03-17T00:15:48;38.30;;;24.73;;
52486;SDS011;38398;45.646;10.390;2024-03-17T00:18:14;39.45;;;25.25;;
52486;SDS011;38398;45.646;10.390;2024-03-17T00:20:40;37.45;;;24.05;;
52486;SDS011;38398;45.646;10.390;2024-03-17T00:23:05;37.00;;;25.38;;
52486;SDS011;38398;45.646;10.390;2024-03-17T00:25:34;40.85;;;27.10;;
52486;SDS011;38398;45.646;10.390;2024-03-17T00:28:01;40.80;;;26.85;;
52486;SDS011;38398;45.646;10.390;2024-03-17T00:30:27;40.33;;;26.45;;
52486;SDS011;38398;45.646;10.390;2024-03-17T00:32:52;42.22;;;25.25;;
52486;SDS011;38398;45.646;10.390;2024-03-17T00:35:18;37.80;;;25.52;;
52486;SDS011;38398;45.646;10.390;2024-03-17T00:37:47;35.67;;;24.63;;
52486;SDS011;38398;45.646;10.390;2024-03-17T00:40:13;41.85;;;26.25;;
52486;SDS011;38398;45.646;10.390;2024-03-17T00:42:39;40.75;;;27.13;;
52486;SDS011;38398;45.646;10.390;2024-03-17T00:45:05;40.92;;;26.40;;
52486;SDS011;38398;45.646;10.390;2024-03-17T00:47:32;40.15;;;27.27;;
52486;SDS011;38398;45.646;10.390;2024-03-17T00:49:57;38.75;;;26.73;;
52486;SDS011;38398;45.646;10.390;2024-03-17T00:52:23;41.17;;;27.55;;
52486;SDS011;38398;45.646;10.390;2024-03-17T00:54:48;39.58;;;26.83;;
52486;SDS011;38398;45.646;10.390;2024-03-17T00:57:14;41.40;;;26.17;;
52486;SDS011;38398;45.646;10.390;2024-03-17T00:59:41;43.05;;;27.58;;
52486;SDS011;38398;45.646;10.390;2024-03-17T01:02:09;44.90;;;29.85;;
52486;SDS011;38398;45.646;10.390;2024-03-17T01:04:37;43.08;;;27.15;;
52486;SDS011;38398;45.646;10.390;2024-03-17T01:07:02;37.30;;;25.13;;
52486;SDS011;38398;45.646;10.390;2024-03-17T01:09:28;39.90;;;27.02;;
52486;SDS011;38398;45.646;10.390;2024-03-17T01:11:53;37.60;;;25.92;;
52486;SDS011;38398;45.646;10.390;2024-03-17T01:14:19;40.20;;;26.13;;
52486;SDS011;38398;45.646;10.390;2024-03-17T01:16:44;39.35;;;24.98;;
52486;SDS011;38398;45.646;10.390;2024-03-17T01:19:10;38.80;;;24.73;;
52486;SDS011;38398;45.646;10.390;2024-03-17T01:21:36;35.95;;;23.67;;
52486;SDS011;38398;45.646;10.390;2024-03-17T01:24:02;37.40;;;26.77;;
52486;SDS011;38398;45.646;10.390;2024-03-17T01:26:28;45.03;;;26.73;;
52486;SDS011;38398;45.646;10.390;2024-03-17T01:28:53;37.17;;;25.80;;
52486;SDS011;38398;45.646;10.390;2024-03-17T01:31:19;38.92;;;24.77;;
52486;SDS011;38398;45.646;10.390;2024-03-17T01:33:44;39.40;;;24.85;;
52486;SDS011;38398;45.646;10.390;2024-03-17T01:36:11;34.55;;;22.83;;
52486;SDS011;38398;45.646;10.390;2024-03-17T01:38:37;34.55;;;22.83;;
52486;SDS011;38398;45.646;10.390;2024-03-17T01:41:03;30.88;;;22.05;;
52486;SDS011;38398;45.646;10.390;2024-03-17T01:43:29;35.90;;;22.00;;
52486;SDS011;38398;45.646;10.390;2024-03-17T01:45:55;35.15;;;22.67;;
52486;SDS011;38398;45.646;10.390;2024-03-17T01:48:22;33.75;;;23.27;;
52486;SDS011;38398;45.646;10.390;2024-03-17T01:50:49;36.15;;;23.88;;
52486;SDS011;38398;45.646;10.390;2024-03-17T01:53:16;37.60;;;24.48;;
52486;SDS011;38398;45.646;10.390;2024-03-17T01:55:42;36.45;;;23.65;;
52486;SDS011;38398;45.646;10.390;2024-03-17T01:58:08;39.72;;;25.80;;
52486;SDS011;38398;45.646;10.390;2024-03-17T02:00:38;36.50;;;24.27;;
52486;SDS011;38398;45.646;10.390;2024-03-17T02:03:08;34.90;;;24.02;;
52486;SDS011;38398;45.646;10.390;2024-03-17T02:05:34;36.75;;;24.00;;
52486;SDS011;38398;45.646;10.390;2024-03-17T02:08:02;34.08;;;23.35;;
52486;SDS011;38398;45.646;10.390;2024-03-17T02:10:29;36.05;;;23.55;;
52486;SDS011;38398;45.646;10.390;2024-03-17T02:12:54;37.25;;;23.63;;
52486;SDS011;38398;45.646;10.390;2024-03-17T02:15:20;33.80;;;21.75;;
52486;SDS011;38398;45.646;10.390;2024-03-17T02:17:45;33.80;;;22.77;;
52486;SDS011;38398;45.646;10.390;2024-03-17T02:20:11;34.30;;;23.45;;
52486;SDS011;38398;45.646;10.390;2024-03-17T02:22:37;34.70;;;22.25;;
52486;SDS011;38398;45.646;10.390;2024-03-17T02:25:03;35.55;;;23.65;;
52486;SDS011;38398;45.646;10.390;2024-03-17T02:27:29;34.22;;;21.52;;
52486;SDS011;38398;45.646;10.390;2024-03-17T02:29:54;32.28;;;21.52;;
52486;SDS011;38398;45.646;10.390;2024-03-17T02:32:20;35.08;;;23.70;;
52486;SDS011;38398;45.646;10.390;2024-03-17T02:34:47;36.65;;;21.80;;
52486;SDS011;38398;45.646;10.390;2024-03-17T02:37:13;30.20;;;20.42;;
52486;SDS011;38398;45.646;10.390;2024-03-17T02:39:39;33.15;;;21.25;;
52486;SDS011;38398;45.646;10.390;2024-03-17T02:42:05;35.40;;;23.90;;
52486;SDS011;38398;45.646;10.390;2024-03-17T02:44:32;34.30;;;23.63;;
52486;SDS011;38398;45.646;10.390;2024-03-17T02:46:59;32.90;;;23.98;;
52486;SDS011;38398;45.646;10.390;2024-03-17T02:49:25;30.98;;;22.98;;
52486;SDS011;38398;45.646;10.390;2024-03-17T02:51:52;34.88;;;23.80;;
52486;SDS011;38398;45.646;10.390;2024-03-17T02:54:19;36.25;;;24.27;;
52486;SDS011;38398;45.646;10.390;2024-03-17T02:56:45;35.60;;;22.42;;
52486;SDS011;38398;45.646;10.390;2024-03-17T02:59:11;32.17;;;21.25;;
52486;SDS011;38398;45.646;10.390;2024-03-17T03:01:37;31.20;;;21.15;;
52486;SDS011;38398;45.646;10.390;2024-03-17T03:04:03;30.88;;;20.50;;
52486;SDS011;38398;45.646;10.390;2024-03-17T03:06:28;31.05;;;21.20;;
52486;SDS011;38398;45.646;10.390;2024-03-17T03:08:54;31.27;;;20.77;;
52486;SDS011;38398;45.646;10.390;2024-03-17T03:11:19;29.77;;;20.85;;
52486;SDS011;38398;45.646;10.390;2024-03-17T03:13:44;28.52;;;21.10;;
52486;SDS011;38398;45.646;10.390;2024-03-17T03:16:11;28.30;;;18.45;;
52486;SDS011;38398;45.646;10.390;2024-03-17T03:18:39;29.02;;;18.30;;
52486;SDS011;38398;45.646;10.390;2024-03-17T03:21:04;28.63;;;20.60;;
52486;SDS011;38398;45.646;10.390;2024-03-17T03:23:30;31.10;;;21.85;;
52486;SDS011;38398;45.646;10.390;2024-03-17T03:25:57;29.15;;;19.52;;
52486;SDS011;38398;45.646;10.390;2024-03-17T03:28:23;28.67;;;19.92;;
52486;SDS011;38398;45.646;10.390;2024-03-17T03:30:49;34.33;;;21.98;;
52486;SDS011;38398;45.646;10.390;2024-03-17T03:33:16;28.10;;;20.00;;
52486;SDS011;38398;45.646;10.390;2024-03-17T03:35:43;27.45;;;19.08;;
52486;SDS011;38398;45.646;10.390;2024-03-17T03:38:08;31.08;;;18.90;;
52486;SDS011;38398;45.646;10.390;2024-03-17T03:40:34;30.58;;;19.98;;
52486;SDS011;38398;45.646;10.390;2024-03-17T03:42:59;29.48;;;18.98;;
52486;SDS011;38398;45.646;10.390;2024-03-17T03:45:25;32.00;;;21.23;;
52486;SDS011;38398;45.646;10.390;2024-03-17T03:47:50;30.80;;;20.00;;
52486;SDS011;38398;45.646;10.390;2024-03-17T03:50:18;26.58;;;18.45;;
52486;SDS011;38398;45.646;10.390;2024-03-17T03:52:46;27.52;;;20.27;;
52486;SDS011;38398;45.646;10.390;2024-03-17T03:55:12;27.55;;;18.63;;
52486;SDS011;38398;45.646;10.390;2024-03-17T03:57:43;30.38;;;20.50;;
52486;SDS011;38398;45.646;10.390;2024-03-17T04:00:16;27.13;;;19.23;;
52486;SDS011;38398;45.646;10.390;2024-03-17T04:02:46;25.85;;;18.33;;
52486;SDS011;38398;45.646;10.390;2024-03-17T04:05:13;27.02;;;17.83;;
52486;SDS011;38398;45.646;10.390;2024-03-17T04:07:39;28.55;;;19.33;;
52486;SDS011;38398;45.646;10.390;2024-03-17T04:10:05;25.17;;;18.90;;
52486;SDS011;38398;45.646;10.390;2024-03-17T04:12:31;28.50;;;19.92;;
52486;SDS011;38398;45.646;10.390;2024-03-17T04:14:58;28.70;;;18.65;;
52486;SDS011;38398;45.646;10.390;2024-03-17T04:17:24;30.88;;;21.42;;
52486;SDS011;38398;45.646;10.390;2024-03-17T04:19:50;29.95;;;20.23;;
52486;SDS011;38398;45.646;10.390;2024-03-17T04:22:16;27.23;;;19.75;;
52486;SDS011;38398;45.646;10.390;2024-03-17T04:24:51;30.30;;;21.15;;
52486;SDS011;38398;45.646;10.390;2024-03-17T04:27:21;30.55;;;21.52;;
52486;SDS011;38398;45.646;10.390;2024-03-17T04:29:49;30.38;;;20.95;;
52486;SDS011;38398;45.646;10.390;2024-03-17T04:32:17;31.60;;;21.13;;
52486;SDS011;38398;45.646;10.390;2024-03-17T04:34:42;28.42;;;19.83;;
52486;SDS011;38398;45.646;10.390;2024-03-17T04:37:10;29.55;;;20.42;;
52486;SDS011;38398;45.646;10.390;2024-03-17T04:39:40;31.83;;;20.92;;
52486;SDS011;38398;45.646;10.390;2024-03-17T04:42:08;31.17;;;22.45;;
52486;SDS011;38398;45.646;10.390;2024-03-17T04:44:37;29.30;;;22.23;;
52486;SDS011;38398;45.646;10.390;2024-03-17T04:47:03;35.13;;;22.95;;
52486;SDS011;38398;45.646;10.390;2024-03-17T04:49:32;30.73;;;21.27;;
52486;SDS011;38398;45.646;10.390;2024-03-17T04:52:00;31.13;;;21.35;;
52486;SDS011;38398;45.646;10.390;2024-03-17T04:54:25;31.10;;;20.95;;
52486;SDS011;38398;45.646;10.390;2024-03-17T04:56:51;31.65;;;22.70;;
52486;SDS011;38398;45.646;10.390;2024-03-17T04:59:17;34.15;;;25.23;;
52486;SDS011;38398;45.646;10.390;2024-03-17T05:01:42;30.95;;;23.08;;
52486;SDS011;38398;45.646;10.390;2024-03-17T05:04:08;29.23;;;19.92;;
52486;SDS011;38398;45.646;10.390;2024-03-17T05:06:33;28.33;;;20.27;;
52486;SDS011;38398;45.646;10.390;2024-03-17T05:08:59;26.08;;;19.70;;
52486;SDS011;38398;45.646;10.390;2024-03-17T05:11:24;26.77;;;18.40;;
52486;SDS011;38398;45.646;10.390;2024-03-17T05:13:50;30.15;;;19.63;;
52486;SDS011;38398;45.646;10.390;2024-03-17T05:16:15;29.15;;;20.05;;
52486;SDS011;38398;45.646;10.390;2024-03-17T05:18:41;30.13;;;20.13;;
52486;SDS011;38398;45.646;10.390;2024-03-17T05:21:08;26.83;;;18.80;;
52486;SDS011;38398;45.646;10.390;2024-03-17T05:23:34;27.17;;;19.20;;
52486;SDS011;38398;45.646;10.390;2024-03-17T05:26:01;28.63;;;20.52;;
52486;SDS011;38398;45.646;10.390;2024-03-17T05:28:27;27.05;;;18.38;;
52486;SDS011;38398;45.646;10.390;2024-03-17T05:30:54;24.63;;;18.15;;
52486;SDS011;38398;45.646;10.390;2024-03-17T05:33:20;26.13;;;18.35;;
52486;SDS011;38398;45.646;10.390;2024-03-17T05:35:56;24.15;;;17.92;;
52486;SDS011;38398;45.646;10.390;2024-03-17T05:38:24;27.02;;;19.08;;
52486;SDS011;38398;45.646;10.390;2024-03-17T05:40:54;25.85;;;17.42;;
52486;SDS011;38398;45.646;10.390;2024-03-17T05:43:20;24.42;;;17.02;;
52486;SDS011;38398;45.646;10.390;2024-03-17T05:45:46;26.13;;;18.75;;
52486;SDS011;38398;45.646;10.390;2024-03-17T05:48:12;24.85;;;17.30;;
52486;SDS011;38398;45.646;10.390;2024-03-17T05:50:37;25.33;;;17.98;;
52486;SDS011;38398;45.646;10.390;2024-03-17T05:53:04;22.50;;;16.77;;
52486;SDS011;38398;45.646;10.390;2024-03-17T05:55:30;23.98;;;16.33;;
52486;SDS011;38398;45.646;10.390;2024-03-17T05:57:55;22.27;;;17.00;;
52486;SDS011;38398;45.646;10.390;2024-03-17T06:00:21;21.98;;;15.80;;
52486;SDS011;38398;45.646;10.390;2024-03-17T06:02:47;22.38;;;15.57;;
52486;SDS011;38398;45.646;10.390;2024-03-17T06:05:13;23.15;;;15.63;;
52486;SDS011;38398;45.646;10.390;2024-03-17T06:07:39;22.42;;;15.80;;
52486;SDS011;38398;45.646;10.390;2024-03-17T06:10:06;24.80;;;15.65;;
52486;SDS011;38398;45.646;10.390;2024-03-17T06:12:32;25.10;;;16.30;;
52486;SDS011;38398;45.646;10.390;2024-03-17T06:14:57;26.02;;;17.95;;
52486;SDS011;38398;45.646;10.390;2024-03-17T06:17:23;22.48;;;15.50;;
52486;SDS011;38398;45.646;10.390;2024-03-17T06:19:48;24.77;;;16.98;;
52486;SDS011;38398;45.646;10.390;2024-03-17T06:22:14;27.63;;;17.23;;
52486;SDS011;38398;45.646;10.390;2024-03-17T06:24:39;24.30;;;16.45;;
52486;SDS011;38398;45.646;10.390;2024-03-17T06:27:05;23.15;;;15.95;;
52486;SDS011;38398;45.646;10.390;2024-03-17T06:29:32;24.05;;;16.08;;
52486;SDS011;38398;45.646;10.390;2024-03-17T06:31:58;21.67;;;15.38;;
52486;SDS011;38398;45.646;10.390;2024-03-17T06:34:25;22.52;;;15.43;;
52486;SDS011;38398;45.646;10.390;2024-03-17T06:36:50;21.55;;;14.13;;
52486;SDS011;38398;45.646;10.390;2024-03-17T06:39:16;21.88;;;15.98;;
52486;SDS011;38398;45.646;10.390;2024-03-17T06:41:42;23.42;;;14.82;;
52486;SDS011;38398;45.646;10.390;2024-03-17T06:44:08;22.60;;;15.32;;
52486;SDS011;38398;45.646;10.390;2024-03-17T06:46:34;22.95;;;15.65;;
52486;SDS011;38398;45.646;10.390;2024-03-17T06:49:00;23.92;;;15.05;;
52486;SDS011;38398;45.646;10.390;2024-03-17T06:51:25;24.30;;;15.40;;
52486;SDS011;38398;45.646;10.390;2024-03-17T06:53:51;22.98;;;15.20;;
52486;SDS011;38398;45.646;10.390;2024-03-17T06:56:16;25.20;;;17.02;;
52486;SDS011;38398;45.646;10.390;2024-03-17T06:58:42;24.88;;;15.18;;
52486;SDS011;38398;45.646;10.390;2024-03-17T07:01:07;33.60;;;20.67;;
52486;SDS011;38398;45.646;10.390;2024-03-17T07:03:33;32.40;;;20.13;;
52486;SDS011;38398;45.646;10.390;2024-03-17T07:05:59;32.67;;;21.13;;
52486;SDS011;38398;45.646;10.390;2024-03-17T07:08:29;34.45;;;20.95;;
52486;SDS011;38398;45.646;10.390;2024-03-17T07:11:02;32.75;;;21.30;;
52486;SDS011;38398;45.646;10.390;2024-03-17T07:13:38;28.92;;;19.08;;
52486;SDS011;38398;45.646;10.390;2024-03-17T07:16:07;31.58;;;22.27;;
52486;SDS011;38398;45.646;10.390;2024-03-17T07:18:33;32.45;;;19.42;;
52486;SDS011;38398;45.646;10.390;2024-03-17T07:20:59;27.67;;;20.48;;
52486;SDS011;38398;45.646;10.390;2024-03-17T07:23:26;26.52;;;18.30;;
52486;SDS011;38398;45.646;10.390;2024-03-17T07:25:55;23.00;;;15.52;;
52486;SDS011;38398;45.646;10.390;2024-03-17T07:28:24;19.30;;;12.05;;
52486;SDS011;38398;45.646;10.390;2024-03-17T07:30:57;23.77;;;13.85;;
52486;SDS011;38398;45.646;10.390;2024-03-17T07:33:23;23.33;;;14.57;;
52486;SDS011;38398;45.646;10.390;2024-03-17T07:35:50;20.95;;;14.20;;
52486;SDS011;38398;45.646;10.390;2024-03-17T07:38:16;22.63;;;13.90;;
52486;SDS011;38398;45.646;10.390;2024-03-17T07:40:42;25.52;;;14.75;;
52486;SDS011;38398;45.646;10.390;2024-03-17T07:43:08;25.15;;;13.75;;
52486;SDS011;38398;45.646;10.390;2024-03-17T07:45:33;24.20;;;13.85;;
52486;SDS011;38398;45.646;10.390;2024-03-17T07:47:59;22.20;;;13.65;;
52486;SDS011;38398;45.646;10.390;2024-03-17T07:50:25;27.42;;;13.60;;
52486;SDS011;38398;45.646;10.390;2024-03-17T07:52:50;22.10;;;13.52;;
52486;SDS011;38398;45.646;10.390;2024-03-17T07:55:16;29.52;;;16.17;;
52486;SDS011;38398;45.646;10.390;2024-03-17T07:57:41;28.33;;;16.80;;
52486;SDS011;38398;45.646;10.390;2024-03-17T08:00:07;33.03;;;16.38;;
52486;SDS011;38398;45.646;10.390;2024-03-17T08:02:49;30.40;;;17.00;;
52486;SDS011;38398;45.646;10.390;2024-03-17T08:05:15;33.35;;;17.77;;
52486;SDS011;38398;45.646;10.390;2024-03-17T08:07:40;34.78;;;18.48;;
52486;SDS011;38398;45.646;10.390;2024-03-17T08:10:10;28.58;;;15.57;;
52486;SDS011;38398;45.646;10.390;2024-03-17T08:12:35;29.35;;;16.38;;
52486;SDS011;38398;45.646;10.390;2024-03-17T08:15:01;28.88;;;16.02;;
52486;SDS011;38398;45.646;10.390;2024-03-17T08:17:26;39.70;;;20.58;;
52486;SDS011;38398;45.646;10.390;2024-03-17T08:19:52;43.53;;;21.52;;
52486;SDS011;38398;45.646;10.390;2024-03-17T08:22:18;34.17;;;17.75;;
52486;SDS011;38398;45.646;10.390;2024-03-17T08:24:44;36.45;;;18.05;;
52486;SDS011;38398;45.646;10.390;2024-03-17T08:27:09;32.78;;;17.17;;
52486;SDS011;38398;45.646;10.390;2024-03-17T08:29:35;31.30;;;17.73;;
52486;SDS011;38398;45.646;10.390;2024-03-17T08:32:00;31.73;;;16.13;;
52486;SDS011;38398;45.646;10.390;2024-03-17T08:34:26;33.10;;;16.88;;
52486;SDS011;38398;45.646;10.390;2024-03-17T08:36:52;29.70;;;15.57;;
52486;SDS011;38398;45.646;10.390;2024-03-17T08:39:17;27.00;;;15.43;;
52486;SDS011;38398;45.646;10.390;2024-03-17T08:41:44;32.88;;;15.93;;
52486;SDS011;38398;45.646;10.390;2024-03-17T08:44:10;31.23;;;15.93;;
52486;SDS011;38398;45.646;10.390;2024-03-17T08:46:36;32.13;;;16.45;;
52486;SDS011;38398;45.646;10.390;2024-03-17T08:49:01;29.23;;;16.08;;
52486;SDS011;38398;45.646;10.390;2024-03-17T08:51:27;28.67;;;13.93;;
52486;SDS011;38398;45.646;10.390;2024-03-17T08:53:53;24.73;;;13.23;;
52486;SDS011;38398;45.646;10.390;2024-03-17T08:56:19;26.77;;;15.57;;
52486;SDS011;38398;45.646;10.390;2024-03-17T08:58:46;42.17;;;27.10;;
52486;SDS011;38398;45.646;10.390;2024-03-17T09:01:11;28.48;;;14.65;;
52486;SDS011;38398;45.646;10.390;2024-03-17T09:03:38;33.05;;;19.35;;
52486;SDS011;38398;45.646;10.390;2024-03-17T09:06:11;28.33;;;18.50;;
52486;SDS011;38398;45.646;10.390;2024-03-17T09:08:40;30.23;;;19.23;;
52486;SDS011;38398;45.646;10.390;2024-03-17T09:11:06;29.25;;;15.38;;
52486;SDS011;38398;45.646;10.390;2024-03-17T09:13:37;26.05;;;14.57;;
52486;SDS011;38398;45.646;10.390;2024-03-17T09:16:03;29.85;;;15.93;;
52486;SDS011;38398;45.646;10.390;2024-03-17T09:18:29;28.88;;;16.98;;
52486;SDS011;38398;45.646;10.390;2024-03-17T09:20:59;30.45;;;16.73;;
52486;SDS011;38398;45.646;10.390;2024-03-17T09:23:25;29.02;;;15.73;;
52486;SDS011;38398;45.646;10.390;2024-03-17T09:25:55;26.77;;;13.45;;
52486;SDS011;38398;45.646;10.390;2024-03-17T09:28:23;22.98;;;12.75;;
52486;SDS011;38398;45.646;10.390;2024-03-17T09:30:49;23.08;;;12.95;;
52486;SDS011;38398;45.646;10.390;2024-03-17T09:33:14;25.58;;;14.20;;
52486;SDS011;38398;45.646;10.390;2024-03-17T09:35:40;28.73;;;14.00;;
52486;SDS011;38398;45.646;10.390;2024-03-17T09:38:06;24.50;;;13.27;;
52486;SDS011;38398;45.646;10.390;2024-03-17T09:40:32;24.40;;;14.00;;
52486;SDS011;38398;45.646;10.390;2024-03-17T09:42:57;27.00;;;13.95;;
52486;SDS011;38398;45.646;10.390;2024-03-17T09:45:24;30.40;;;13.98;;
52486;SDS011;38398;45.646;10.390;2024-03-17T09:47:50;28.88;;;14.00;;
52486;SDS011;38398;45.646;10.390;2024-03-17T09:50:16;22.70;;;13.30;;
52486;SDS011;38398;45.646;10.390;2024-03-17T09:52:44;23.77;;;12.38;;
52486;SDS011;38398;45.646;10.390;2024-03-17T09:55:13;23.75;;;12.68;;
52486;SDS011;38398;45.646;10.390;2024-03-17T09:57:40;23.52;;;12.10;;
52486;SDS011;38398;45.646;10.390;2024-03-17T10:00:09;21.90;;;10.90;;
52486;SDS011;38398;45.646;10.390;2024-03-17T10:02:42;18.03;;;9.80;;
52486;SDS011;38398;45.646;10.390;2024-03-17T10:05:24;17.75;;;10.65;;
52486;SDS011;38398;45.646;10.390;2024-03-17T10:07:51;18.23;;;11.05;;
52486;SDS011;38398;45.646;10.390;2024-03-17T10:10:17;18.02;;;10.52;;
52486;SDS011;38398;45.646;10.390;2024-03-17T10:12:43;17.27;;;10.30;;
52486;SDS011;38398;45.646;10.390;2024-03-17T10:15:12;16.90;;;9.90;;
52486;SDS011;38398;45.646;10.390;2024-03-17T10:17:38;21.98;;;12.15;;
52486;SDS011;38398;45.646;10.390;2024-03-17T10:20:14;20.75;;;11.38;;
52486;SDS011;38398;45.646;10.390;2024-03-17T10:22:59;19.42;;;11.52;;
52486;SDS011;38398;45.646;10.390;2024-03-17T10:25:30;21.30;;;12.52;;
52486;SDS011;38398;45.646;10.390;2024-03-17T10:27:57;19.77;;;11.55;;
52486;SDS011;38398;45.646;10.390;2024-03-17T10:30:23;21.70;;;13.00;;
52486;SDS011;38398;45.646;10.390;2024-03-17T10:33:00;21.23;;;13.65;;
52486;SDS011;38398;45.646;10.390;2024-03-17T10:37:57;30.20;;;20.58;;
52486;SDS011;38398;45.646;10.390;2024-03-17T10:40:24;26.75;;;17.45;;
52486;SDS011;38398;45.646;10.390;2024-03-17T10:42:50;21.42;;;14.77;;
52486;SDS011;38398;45.646;10.390;2024-03-17T10:45:16;22.83;;;15.30;;
52486;SDS011;38398;45.646;10.390;2024-03-17T10:47:51;21.25;;;14.95;;
52486;SDS011;38398;45.646;10.390;2024-03-17T10:50:20;21.80;;;15.82;;
52486;SDS011;38398;45.646;10.390;2024-03-17T10:52:48;21.50;;;16.73;;
52486;SDS011;38398;45.646;10.390;2024-03-17T10:55:24;21.13;;;15.73;;
52486;SDS011;38398;45.646;10.390;2024-03-17T10:57:53;21.38;;;15.63;;
52486;SDS011;38398;45.646;10.390;2024-03-17T11:00:23;22.13;;;14.83;;
52486;SDS011;38398;45.646;10.390;2024-03-17T11:02:50;23.77;;;14.75;;
52486;SDS011;38398;45.646;10.390;2024-03-17T11:05:24;22.23;;;13.77;;
52486;SDS011;38398;45.646;10.390;2024-03-17T11:07:51;24.33;;;13.88;;
52486;SDS011;38398;45.646;10.390;2024-03-17T11:10:21;18.40;;;12.95;;
52486;SDS011;38398;45.646;10.390;2024-03-17T11:13:02;26.50;;;16.05;;
52486;SDS011;38398;45.646;10.390;2024-03-17T11:20:35;18.13;;;13.00;;
52486;SDS011;38398;45.646;10.390;2024-03-17T11:23:05;17.55;;;12.45;;
52486;SDS011;38398;45.646;10.390;2024-03-17T11:28:08;15.85;;;11.63;;
52486;SDS011;38398;45.646;10.390;2024-03-17T11:38:52;19.13;;;14.05;;
52486;SDS011;38398;45.646;10.390;2024-03-17T11:44:15;20.90;;;13.65;;
52486;SDS011;38398;45.646;10.390;2024-03-17T11:49:32;19.83;;;14.25;;
52486;SDS011;38398;45.646;10.390;2024-03-17T11:52:03;22.90;;;16.25;;
52486;SDS011;38398;45.646;10.390;2024-03-17T11:54:42;19.80;;;14.32;;
52486;SDS011;38398;45.646;10.390;2024-03-17T11:57:12;19.73;;;13.23;;
52486;SDS011;38398;45.646;10.390;2024-03-17T11:59:47;20.88;;;13.85;;
52486;SDS011;38398;45.646;10.390;2024-03-17T12:02:18;19.23;;;14.85;;
52486;SDS011;38398;45.646;10.390;2024-03-17T12:04:44;20.67;;;14.57;;
52486;SDS011;38398;45.646;10.390;2024-03-17T12:07:11;21.85;;;16.02;;
52486;SDS011;38398;45.646;10.390;2024-03-17T12:09:38;21.98;;;14.98;;
52486;SDS011;38398;45.646;10.390;2024-03-17T12:12:06;21.00;;;14.45;;
52486;SDS011;38398;45.646;10.390;2024-03-17T12:14:38;22.60;;;15.60;;
52486;SDS011;38398;45.646;10.390;2024-03-17T12:19:32;20.30;;;15.95;;
52486;SDS011;38398;45.646;10.390;2024-03-17T12:21:58;21.48;;;15.50;;
52486;SDS011;38398;45.646;10.390;2024-03-17T12:24:27;23.92;;;15.82;;
52486;SDS011;38398;45.646;10.390;2024-03-17T12:27:05;29.15;;;19.48;;
52486;SDS011;38398;45.646;10.390;2024-03-17T12:29:35;23.95;;;15.93;;
52486;SDS011;38398;45.646;10.390;2024-03-17T12:32:03;22.85;;;15.95;;
52486;SDS011;38398;45.646;10.390;2024-03-17T12:34:32;25.63;;;16.73;;
52486;SDS011;38398;45.646;10.390;2024-03-17T12:37:01;25.05;;;15.77;;
52486;SDS011;38398;45.646;10.390;2024-03-17T12:42:03;23.98;;;16.58;;
52486;SDS011;38398;45.646;10.390;2024-03-17T12:44:29;22.90;;;16.95;;
52486;SDS011;38398;45.646;10.390;2024-03-17T12:46:56;21.80;;;16.77;;
52486;SDS011;38398;45.646;10.390;2024-03-17T12:49:22;24.48;;;17.00;;
52486;SDS011;38398;45.646;10.390;2024-03-17T12:51:51;24.30;;;16.90;;
52486;SDS011;38398;45.646;10.390;2024-03-17T12:54:21;21.83;;;16.85;;
52486;SDS011;38398;45.646;10.390;2024-03-17T12:56:48;21.77;;;16.73;;
52486;SDS011;38398;45.646;10.390;2024-03-17T12:59:36;24.40;;;18.00;;
52486;SDS011;38398;45.646;10.390;2024-03-17T13:02:44;26.30;;;17.23;;
52486;SDS011;38398;45.646;10.390;2024-03-17T13:07:45;25.58;;;17.88;;
52486;SDS011;38398;45.646;10.390;2024-03-17T13:10:15;24.38;;;18.20;;
52486;SDS011;38398;45.646;10.390;2024-03-17T13:12:44;21.42;;;16.98;;
52486;SDS011;38398;45.646;10.390;2024-03-17T13:15:14;23.15;;;17.90;;
52486;SDS011;38398;45.646;10.390;2024-03-17T13:17:42;24.80;;;17.25;;
52486;SDS011;38398;45.646;10.390;2024-03-17T13:20:11;23.10;;;17.60;;
52486;SDS011;38398;45.646;10.390;2024-03-17T13:22:40;26.45;;;17.30;;
52486;SDS011;38398;45.646;10.390;2024-03-17T13:27:46;23.13;;;17.42;;
52486;SDS011;38398;45.646;10.390;2024-03-17T13:30:13;24.58;;;17.42;;
52486;SDS011;38398;45.646;10.390;2024-03-17T13:32:40;25.13;;;17.85;;
52486;SDS011;38398;45.646;10.390;2024-03-17T13:35:14;24.83;;;17.00;;
52486;SDS011;38398;45.646;10.390;2024-03-17T13:37:41;23.55;;;17.80;;
52486;SDS011;38398;45.646;10.390;2024-03-17T13:40:07;26.20;;;18.13;;
52486;SDS011;38398;45.646;10.390;2024-03-17T13:42:35;23.92;;;18.23;;
52486;SDS011;38398;45.646;10.390;2024-03-17T13:45:00;27.90;;;19.15;;
52486;SDS011;38398;45.646;10.390;2024-03-17T13:47:26;26.17;;;20.05;;
52486;SDS011;38398;45.646;10.390;2024-03-17T13:49:51;25.02;;;18.38;;
52486;SDS011;38398;45.646;10.390;2024-03-17T13:52:17;23.80;;;17.77;;
52486;SDS011;38398;45.646;10.390;2024-03-17T13:54:43;21.75;;;17.40;;
52486;SDS011;38398;45.646;10.390;2024-03-17T13:57:08;23.70;;;18.33;;
52486;SDS011;38398;45.646;10.390;2024-03-17T13:59:34;25.38;;;17.90;;
52486;SDS011;38398;45.646;10.390;2024-03-17T14:02:01;24.67;;;18.23;;
52486;SDS011;38398;45.646;10.390;2024-03-17T14:04:27;24.02;;;17.88;;
52486;SDS011;38398;45.646;10.390;2024-03-17T14:06:52;28.05;;;19.73;;
52486;SDS011;38398;45.646;10.390;2024-03-17T14:09:18;27.15;;;19.70;;
52486;SDS011;38398;45.646;10.390;2024-03-17T14:11:44;25.27;;;18.05;;
52486;SDS011;38398;45.646;10.390;2024-03-17T14:14:11;24.55;;;18.25;;
52486;SDS011;38398;45.646;10.390;2024-03-17T14:16:37;25.08;;;18.92;;
52486;SDS011;38398;45.646;10.390;2024-03-17T14:19:03;28.75;;;18.73;;
52486;SDS011;38398;45.646;10.390;2024-03-17T14:21:28;24.63;;;17.92;;
52486;SDS011;38398;45.646;10.390;2024-03-17T14:23:54;23.38;;;17.70;;
52486;SDS011;38398;45.646;10.390;2024-03-17T14:26:20;25.13;;;17.00;;
52486;SDS011;38398;45.646;10.390;2024-03-17T14:28:47;26.50;;;19.42;;
52486;SDS011;38398;45.646;10.390;2024-03-17T14:31:14;30.20;;;20.13;;
52486;SDS011;38398;45.646;10.390;2024-03-17T14:33:39;25.02;;;17.95;;
52486;SDS011;38398;45.646;10.390;2024-03-17T14:36:05;28.45;;;20.52;;
52486;SDS011;38398;45.646;10.390;2024-03-17T14:38:31;34.88;;;24.88;;
52486;SDS011;38398;45.646;10.390;2024-03-17T14:40:57;27.70;;;20.17;;
52486;SDS011;38398;45.646;10.390;2024-03-17T14:43:22;27.98;;;19.13;;